createdAt,value
2018-09-08T00:02:00.147Z,13.42
2018-09-08T00:04:28.933Z,13.28
2018-09-08T00:07:02.856Z,13.20
2018-09-08T00:09:31.628Z,13.13
2018-09-08T00:12:00.403Z,13.13
2018-09-08T00:14:29.183Z,13.17
2018-09-08T00:17:03.263Z,13.19
2018-09-08T00:19:37.269Z,13.22
2018-09-08T00:22:11.298Z,13.24
2018-09-08T00:24:45.272Z,13.13
2018-09-08T00:27:13.082Z,13.05
2018-09-08T00:29:47.003Z,13.13
2018-09-08T00:32:15.907Z,12.95
2018-09-08T00:34:44.700Z,12.85
2018-09-08T00:37:13.485Z,12.74
2018-09-08T00:39:43.531Z,12.73
2018-09-08T00:42:12.749Z,12.84
2018-09-08T00:44:41.548Z,12.82
2018-09-08T00:47:10.317Z,12.94
2018-09-08T00:49:39.249Z,12.99
2018-09-08T00:52:08.280Z,12.71
2018-09-08T00:54:37.053Z,12.59
2018-09-08T00:57:05.802Z,12.58
2018-09-08T00:59:34.588Z,12.54
2018-09-08T01:02:03.365Z,12.56
2018-09-08T01:04:32.191Z,12.49
2018-09-08T01:07:01.249Z,12.53
2018-09-08T01:09:30.094Z,12.54
2018-09-08T01:11:58.989Z,12.57
2018-09-08T01:14:27.748Z,12.63
2018-09-08T01:16:56.506Z,12.67
2018-09-08T01:19:25.260Z,12.70
2018-09-08T01:21:54.035Z,12.76
2018-09-08T01:24:22.860Z,12.72
2018-09-08T01:26:51.677Z,12.69
2018-09-08T01:29:20.448Z,12.87
2018-09-08T01:31:49.347Z,12.95
2018-09-08T01:34:18.097Z,13.02
2018-09-08T01:36:46.876Z,12.98
2018-09-08T01:39:15.757Z,13.01
2018-09-08T01:41:44.524Z,13.06
2018-09-08T01:44:13.272Z,13.12
2018-09-08T01:46:42.019Z,13.09
2018-09-08T01:49:10.765Z,13.11
2018-09-08T01:51:39.520Z,13.04
2018-09-08T01:54:08.743Z,12.94
2018-09-08T01:56:37.576Z,12.89
2018-09-08T01:59:06.503Z,12.87
2018-09-08T02:01:35.310Z,12.85
2018-09-08T02:04:04.216Z,12.89
2018-09-08T02:06:33.003Z,12.77
2018-09-08T02:09:01.828Z,12.79
2018-09-08T02:11:30.588Z,12.82
2018-09-08T02:13:59.358Z,12.79
2018-09-08T02:16:28.145Z,12.71
2018-09-08T02:18:56.951Z,12.67
2018-09-08T02:21:25.707Z,12.72
2018-09-08T02:23:54.485Z,12.67
2018-09-08T02:26:23.380Z,12.59
2018-09-08T02:28:52.460Z,12.51
2018-09-08T02:31:21.191Z,12.63
2018-09-08T02:33:50.041Z,12.59
2018-09-08T02:36:18.801Z,12.59
2018-09-08T02:38:47.616Z,12.50
2018-09-08T02:41:16.379Z,12.45
2018-09-08T02:43:45.203Z,12.38
2018-09-08T02:46:13.945Z,12.34
2018-09-08T02:48:42.785Z,12.32
2018-09-08T02:51:10.174Z,12.30
2018-09-08T02:53:37.579Z,12.36
2018-09-08T02:56:04.976Z,12.30
2018-09-08T02:58:32.456Z,12.27
2018-09-08T03:00:59.881Z,12.26
2018-09-08T03:03:27.263Z,12.24
2018-09-08T03:05:54.669Z,12.20
2018-09-08T03:08:22.056Z,12.23
2018-09-08T03:10:49.441Z,12.23
2018-09-08T03:13:16.836Z,12.22
2018-09-08T03:15:44.224Z,12.23
2018-09-08T03:20:45.211Z,12.19
2018-09-08T03:23:12.602Z,12.18
2018-09-08T03:25:40.009Z,12.13
2018-09-08T03:28:07.463Z,12.09
2018-09-08T03:30:34.975Z,12.08
2018-09-08T03:33:02.529Z,12.03
2018-09-08T03:35:29.936Z,11.98
2018-09-08T03:37:57.337Z,11.97
2018-09-08T03:40:24.826Z,11.98
2018-09-08T03:42:52.280Z,11.96
2018-09-08T03:45:19.747Z,12.03
2018-09-08T03:47:47.151Z,12.02
2018-09-08T03:50:14.593Z,11.99
2018-09-08T03:52:41.988Z,11.95
2018-09-08T03:55:09.373Z,11.93
2018-09-08T03:57:36.855Z,11.85
2018-09-08T04:00:04.325Z,11.79
2018-09-08T04:02:31.704Z,11.82
2018-09-08T04:05:00.529Z,11.79
2018-09-08T04:07:29.288Z,11.75
2018-09-08T04:09:58.163Z,11.73
2018-09-08T04:12:26.911Z,11.70
2018-09-08T04:14:55.684Z,11.71
2018-09-08T04:17:24.428Z,11.69
2018-09-08T04:19:53.348Z,11.65
2018-09-08T04:22:26.245Z,11.64
2018-09-08T04:24:55.022Z,11.69
2018-09-08T04:27:23.820Z,11.64
2018-09-08T04:29:52.568Z,11.56
2018-09-08T04:32:21.425Z,11.61
2018-09-08T04:34:50.252Z,11.58
2018-09-08T04:37:19.024Z,11.57
2018-09-08T04:39:47.910Z,11.65
2018-09-08T04:42:16.724Z,11.63
2018-09-08T04:44:45.537Z,11.61
2018-09-08T04:47:14.298Z,11.54
2018-09-08T04:49:43.083Z,11.57
2018-09-08T04:52:11.856Z,11.61
2018-09-08T04:54:40.729Z,11.61
2018-09-08T04:57:09.480Z,11.56
2018-09-08T04:59:38.254Z,11.55
2018-09-08T05:02:07.043Z,11.63
2018-09-08T05:04:35.924Z,11.61
2018-09-08T05:07:04.780Z,11.62
2018-09-08T05:09:33.525Z,11.62
2018-09-08T05:12:02.748Z,11.51
2018-09-08T05:14:31.567Z,11.48
2018-09-08T05:17:00.381Z,11.49
2018-09-08T05:19:29.113Z,11.54
2018-09-08T05:21:57.958Z,11.58
2018-09-08T05:24:26.809Z,11.67
2018-09-08T05:26:55.565Z,11.68
2018-09-08T05:29:24.306Z,11.64
2018-09-08T05:31:53.170Z,11.58
2018-09-08T05:34:22.040Z,11.58
2018-09-08T05:36:50.799Z,11.60
2018-09-08T05:39:19.545Z,11.69
2018-09-08T05:41:48.299Z,11.74
2018-09-08T05:44:17.064Z,11.72
2018-09-08T05:46:46.016Z,11.73
2018-09-08T05:49:14.913Z,11.74
2018-09-08T05:51:43.723Z,11.76
2018-09-08T05:54:12.671Z,11.84
2018-09-08T05:56:41.453Z,11.94
2018-09-08T05:59:10.267Z,11.98
2018-09-08T06:01:39.036Z,12.04
2018-09-08T06:04:08.100Z,12.10
2018-09-08T06:06:36.945Z,12.15
2018-09-08T06:09:07.504Z,12.18
2018-09-08T06:11:36.285Z,12.21
2018-09-08T06:14:05.156Z,12.23
2018-09-08T06:16:34.132Z,12.23
2018-09-08T06:19:03.011Z,12.27
2018-09-08T06:21:32.195Z,12.30
2018-09-08T06:24:00.962Z,12.38
2018-09-08T06:26:29.723Z,12.37
2018-09-08T06:28:58.480Z,12.42
2018-09-08T06:31:27.240Z,12.51
2018-09-08T06:33:56.059Z,12.59
2018-09-08T06:36:24.800Z,12.69
2018-09-08T06:38:55.011Z,12.81
2018-09-08T06:41:23.773Z,12.98
2018-09-08T06:43:52.713Z,13.26
2018-09-08T06:46:21.495Z,13.62
2018-09-08T06:48:50.256Z,14.43
2018-09-08T06:51:19.033Z,15.46
2018-09-08T06:53:47.784Z,16.69
2018-09-08T06:56:16.524Z,17.43
2018-09-08T06:58:45.319Z,17.94
2018-09-08T07:01:14.126Z,18.50
2018-09-08T07:03:42.988Z,19.34
2018-09-08T07:06:11.795Z,19.88
2018-09-08T07:08:40.564Z,19.95
2018-09-08T07:11:09.421Z,20.48
2018-09-08T07:13:38.332Z,19.94
2018-09-08T07:16:07.472Z,18.69
2018-09-08T07:18:36.251Z,19.61
2018-09-08T07:21:05.055Z,20.82
2018-09-08T07:23:33.884Z,20.27
2018-09-08T07:26:03.238Z,19.97
2018-09-08T07:28:32.671Z,20.70
2018-09-08T07:31:01.612Z,20.53
2018-09-08T07:33:30.860Z,20.02
2018-09-08T07:35:59.636Z,20.30
2018-09-08T07:38:28.407Z,21.02
2018-09-08T07:40:57.235Z,21.08
2018-09-08T07:43:27.795Z,21.60
2018-09-08T07:45:56.727Z,21.63
2018-09-08T07:48:25.559Z,21.59
2018-09-08T07:50:54.433Z,21.24
2018-09-08T07:53:23.392Z,21.28
2018-09-08T07:55:52.079Z,21.20
2018-09-08T07:58:20.873Z,21.66
2018-09-08T08:00:49.741Z,20.47
2018-09-08T08:03:19.171Z,21.25
2018-09-08T08:05:48.080Z,21.37
2018-09-08T08:08:16.911Z,21.80
2018-09-08T08:10:45.732Z,21.96
2018-09-08T08:13:14.583Z,20.28
2018-09-08T08:15:44.261Z,20.58
2018-09-08T08:18:13.352Z,20.48
2018-09-08T08:20:42.132Z,19.01
2018-09-08T08:23:10.901Z,20.47
2018-09-08T08:25:39.802Z,19.61
2018-09-08T08:28:08.771Z,19.51
2018-09-08T08:30:43.933Z,18.46
2018-09-08T08:33:12.701Z,18.84
2018-09-08T08:35:41.533Z,18.69
2018-09-08T08:38:10.328Z,18.63
2018-09-08T08:40:39.246Z,18.24
2018-09-08T08:43:08.097Z,18.16
2018-09-08T08:45:36.868Z,18.22
2018-09-08T08:48:05.863Z,18.77
2018-09-08T08:50:45.737Z,18.35
2018-09-08T08:53:25.497Z,18.59
2018-09-08T08:55:54.374Z,18.13
2018-09-08T08:58:23.081Z,18.69
2018-09-08T09:00:52.006Z,18.82
2018-09-08T09:03:20.784Z,18.84
2018-09-08T09:05:49.566Z,18.82
2018-09-08T09:08:18.841Z,18.69
2018-09-08T09:10:47.234Z,18.43
2018-09-08T09:13:16.077Z,18.86
2018-09-08T09:15:44.928Z,18.80
2018-09-08T09:18:23.565Z,19.43
2018-09-08T09:21:03.439Z,19.13
2018-09-08T09:23:43.108Z,19.03
2018-09-08T09:26:11.872Z,19.26
2018-09-08T09:28:40.620Z,19.32
2018-09-08T09:31:09.497Z,19.34
2018-09-08T09:33:38.351Z,19.06
2018-09-08T09:36:07.315Z,18.74
2018-09-08T09:38:36.089Z,19.22
2018-09-08T09:41:04.847Z,19.16
2018-09-08T09:43:33.675Z,19.50
2018-09-08T09:46:02.424Z,19.93
2018-09-08T09:48:31.792Z,19.78
2018-09-08T09:51:00.594Z,19.50
2018-09-08T09:53:29.363Z,20.04
2018-09-08T09:55:58.124Z,20.34
2018-09-08T09:58:27.026Z,19.81
2018-09-08T10:01:01.430Z,19.82
2018-09-08T10:03:30.229Z,19.88
2018-09-08T10:05:59.058Z,20.04
2018-09-08T10:08:27.857Z,20.61
2018-09-08T10:10:56.601Z,20.76
2018-09-08T10:13:25.376Z,21.14
2018-09-08T10:15:54.341Z,21.24
2018-09-08T10:18:23.113Z,20.92
2018-09-08T10:20:51.990Z,20.95
2018-09-08T10:23:20.878Z,20.60
2018-09-08T10:25:49.603Z,20.41
2018-09-08T10:28:18.361Z,20.83
2018-09-08T10:30:47.205Z,21.15
2018-09-08T10:33:15.965Z,21.53
2018-09-08T10:35:44.748Z,21.39
2018-09-08T10:38:13.508Z,21.25
2018-09-08T10:40:42.374Z,20.98
2018-09-08T10:43:11.178Z,20.46
2018-09-08T10:45:40.057Z,20.62
2018-09-08T10:48:09.005Z,20.73
2018-09-08T10:50:37.788Z,21.02
2018-09-08T10:53:06.565Z,21.26
2018-09-08T10:55:35.356Z,21.74
2018-09-08T10:58:04.088Z,21.97
2018-09-08T11:00:33.389Z,22.09
2018-09-08T11:03:02.128Z,21.56
2018-09-08T11:05:30.900Z,21.93
2018-09-08T11:07:59.657Z,21.92
2018-09-08T11:10:28.457Z,21.94
2018-09-08T11:12:57.228Z,22.43
2018-09-08T11:15:26.232Z,22.53
2018-09-08T11:17:55.000Z,22.54
2018-09-08T11:20:23.759Z,22.08
2018-09-08T11:22:52.668Z,22.34
2018-09-08T11:25:21.403Z,22.34
2018-09-08T11:27:50.276Z,21.97
2018-09-08T11:30:19.252Z,22.35
2018-09-08T11:32:48.044Z,22.11
2018-09-08T11:35:16.952Z,21.70
2018-09-08T11:37:46.700Z,22.22
2018-09-08T11:40:16.376Z,22.70
2018-09-08T11:42:45.193Z,23.25
2018-09-08T11:45:14.231Z,23.27
2018-09-08T11:47:43.113Z,22.65
2018-09-08T11:50:11.920Z,21.76
2018-09-08T11:52:41.849Z,21.74
2018-09-08T11:55:12.911Z,21.80
2018-09-08T11:57:41.876Z,22.04
2018-09-08T12:00:10.853Z,22.31
2018-09-08T12:02:42.386Z,22.88
2018-09-08T12:05:12.017Z,22.70
2018-09-08T12:07:40.797Z,22.28
2018-09-08T12:10:10.925Z,22.46
2018-09-08T12:12:39.820Z,22.90
2018-09-08T12:15:08.668Z,23.31
2018-09-08T12:17:37.441Z,23.19
2018-09-08T12:20:06.244Z,23.61
2018-09-08T12:22:35.003Z,22.98
2018-09-08T12:25:03.768Z,23.17
2018-09-08T12:27:32.528Z,23.87
2018-09-08T12:30:01.440Z,23.93
2018-09-08T12:32:30.473Z,24.08
2018-09-08T12:34:59.190Z,24.93
2018-09-08T12:37:27.924Z,25.49
2018-09-08T12:39:56.697Z,25.91
2018-09-08T12:42:25.431Z,27.13
2018-09-08T12:44:54.192Z,25.98
2018-09-08T12:47:22.940Z,25.09
2018-09-08T12:49:51.733Z,24.78
2018-09-08T12:52:20.599Z,24.32
2018-09-08T12:54:49.452Z,23.66
2018-09-08T12:57:18.208Z,23.94
2018-09-08T12:59:47.165Z,24.45
2018-09-08T13:02:15.913Z,23.82
2018-09-08T13:04:44.669Z,23.96
2018-09-08T13:07:13.451Z,23.79
2018-09-08T13:09:42.217Z,23.53
2018-09-08T13:12:11.079Z,23.34
2018-09-08T13:14:39.832Z,24.09
2018-09-08T13:17:08.638Z,24.25
2018-09-08T13:19:37.493Z,24.48
2018-09-08T13:22:06.344Z,24.34
2018-09-08T13:24:35.171Z,24.37
2018-09-08T13:27:03.925Z,24.26
2018-09-08T13:29:32.701Z,24.45
2018-09-08T13:32:01.613Z,24.10
2018-09-08T13:34:30.457Z,24.03
2018-09-08T13:36:59.212Z,23.57
2018-09-08T13:39:28.105Z,23.74
2018-09-08T13:41:56.841Z,23.83
2018-09-08T13:44:25.572Z,23.94
2018-09-08T13:46:54.382Z,23.64
2018-09-08T13:49:23.180Z,23.52
2018-09-08T13:51:51.978Z,24.38
2018-09-08T13:54:20.846Z,23.91
2018-09-08T13:56:49.597Z,23.43
2018-09-08T13:59:18.337Z,22.56
2018-09-08T14:01:47.112Z,22.14
2018-09-08T14:04:15.984Z,22.32
2018-09-08T14:06:44.761Z,22.69
2018-09-08T14:09:13.519Z,23.61
2018-09-08T14:11:43.001Z,23.71
2018-09-08T14:14:11.840Z,23.85
2018-09-08T14:16:40.683Z,23.59
2018-09-08T14:19:09.492Z,23.60
2018-09-08T14:21:38.272Z,23.61
2018-09-08T14:24:07.112Z,23.52
2018-09-08T14:26:35.871Z,23.89
2018-09-08T14:29:04.656Z,24.09
2018-09-08T14:31:33.547Z,23.85
2018-09-08T14:34:02.366Z,24.56
2018-09-08T14:36:31.113Z,25.10
2018-09-08T14:38:59.880Z,25.36
2018-09-08T14:41:28.724Z,25.20
2018-09-08T14:43:57.641Z,24.38
2018-09-08T14:46:26.399Z,24.44
2018-09-08T14:48:55.279Z,24.53
2018-09-08T14:51:24.044Z,24.76
2018-09-08T14:53:52.787Z,24.40
2018-09-08T14:56:21.591Z,24.06
2018-09-08T14:58:50.725Z,24.39
2018-09-08T15:01:19.569Z,24.81
2018-09-08T15:03:48.523Z,24.66
2018-09-08T15:06:17.284Z,23.61
2018-09-08T15:08:46.069Z,23.60
2018-09-08T15:11:14.819Z,24.32
2018-09-08T15:13:43.560Z,24.57
2018-09-08T15:16:12.323Z,23.86
2018-09-08T15:18:41.185Z,23.66
2018-09-08T15:21:09.925Z,23.30
2018-09-08T15:23:38.689Z,23.74
2018-09-08T15:26:07.693Z,23.12
2018-09-08T15:28:36.492Z,22.53
2018-09-08T15:31:05.263Z,22.81
2018-09-08T15:33:34.035Z,22.93
2018-09-08T15:36:02.755Z,23.25
2018-09-08T15:38:31.583Z,23.74
2018-09-08T15:41:00.473Z,23.09
2018-09-08T15:43:29.456Z,23.15
2018-09-08T15:45:58.265Z,23.46
2018-09-08T15:48:26.998Z,23.46
2018-09-08T15:50:55.784Z,22.75
2018-09-08T15:53:24.672Z,22.58
2018-09-08T15:55:53.594Z,22.90
2018-09-08T15:58:22.397Z,22.78
2018-09-08T16:00:51.148Z,22.58
2018-09-08T16:03:19.914Z,22.53
2018-09-08T16:05:48.644Z,22.83
2018-09-08T16:08:17.508Z,22.79
2018-09-08T16:10:46.458Z,22.70
2018-09-08T16:13:15.236Z,22.94
2018-09-08T16:15:44.120Z,22.95
2018-09-08T16:18:12.991Z,22.90
2018-09-08T16:20:41.753Z,22.94
2018-09-08T16:23:10.537Z,22.88
2018-09-08T16:25:39.283Z,22.77
2018-09-08T16:28:08.051Z,22.35
2018-09-08T16:30:36.809Z,22.36
2018-09-08T16:33:05.662Z,22.17
2018-09-08T16:35:36.210Z,22.36
2018-09-08T16:38:04.984Z,22.08
2018-09-08T16:40:34.014Z,21.63
2018-09-08T16:43:02.763Z,21.66
2018-09-08T16:45:31.984Z,21.91
2018-09-08T16:48:00.805Z,21.93
2018-09-08T16:50:30.744Z,21.92
2018-09-08T16:52:59.489Z,21.90
2018-09-08T16:55:28.541Z,21.86
2018-09-08T16:57:57.526Z,21.81
2018-09-08T17:00:26.255Z,21.78
2018-09-08T17:02:55.036Z,21.72
2018-09-08T17:05:23.800Z,21.64
2018-09-08T17:07:52.573Z,21.53
2018-09-08T17:10:21.615Z,21.44
2018-09-08T17:12:50.540Z,21.28
2018-09-08T17:15:20.080Z,21.18
2018-09-08T17:17:48.817Z,21.03
2018-09-08T17:20:17.568Z,20.94
2018-09-08T17:22:46.319Z,20.86
2018-09-08T17:25:16.430Z,20.77
2018-09-08T17:27:45.528Z,20.69
2018-09-08T17:30:14.310Z,20.68
2018-09-08T17:32:43.181Z,20.58
2018-09-08T17:35:13.918Z,20.39
2018-09-08T17:37:43.027Z,20.36
2018-09-08T17:40:11.816Z,20.47
2018-09-08T17:42:40.565Z,20.22
2018-09-08T17:45:09.472Z,20.02
2018-09-08T17:47:38.347Z,19.87
2018-09-08T17:50:07.285Z,19.71
2018-09-08T17:52:36.153Z,19.57
2018-09-08T17:55:06.339Z,19.44
2018-09-08T17:57:35.128Z,19.32
2018-09-08T18:00:05.551Z,19.18
2018-09-08T18:02:34.353Z,19.08
2018-09-08T18:05:03.342Z,18.95
2018-09-08T18:07:32.117Z,18.83
2018-09-08T18:10:01.019Z,18.73
2018-09-08T18:12:29.962Z,18.62
2018-09-08T18:14:58.719Z,18.60
2018-09-08T18:17:27.506Z,18.52
2018-09-08T18:19:56.999Z,18.36
2018-09-08T18:22:26.040Z,18.23
2018-09-08T18:24:56.212Z,18.11
2018-09-08T18:27:25.027Z,18.03
2018-09-08T18:29:53.812Z,17.92
2018-09-08T18:32:22.633Z,17.85
2018-09-08T18:34:51.489Z,17.76
2018-09-08T18:37:20.259Z,17.65
2018-09-08T18:39:49.028Z,17.64
2018-09-08T18:42:17.800Z,17.55
2018-09-08T18:44:46.552Z,17.48
2018-09-08T18:47:15.335Z,17.37
2018-09-08T18:49:45.916Z,17.38
2018-09-08T18:52:16.225Z,17.24
2018-09-08T18:54:45.372Z,17.13
2018-09-08T18:57:14.189Z,17.08
2018-09-08T18:59:43.016Z,17.03
2018-09-08T19:02:11.864Z,16.94
2018-09-08T19:04:40.756Z,16.92
2018-09-08T19:07:11.119Z,16.84
2018-09-08T19:09:40.131Z,16.77
2018-09-08T19:12:08.931Z,16.73
2018-09-08T19:14:43.597Z,16.73
2018-09-08T19:17:12.441Z,16.67
2018-09-08T19:19:41.210Z,16.63
2018-09-08T19:22:11.419Z,16.62
2018-09-08T19:24:44.593Z,16.55
2018-09-08T19:27:14.116Z,16.65
2018-09-08T19:29:48.380Z,16.60
2018-09-08T19:32:18.054Z,16.45
2018-09-08T19:34:50.981Z,16.53
2018-09-08T19:37:21.549Z,16.51
2018-09-08T19:39:50.632Z,16.42
2018-09-08T19:42:22.435Z,16.36
2018-09-08T19:44:51.277Z,16.27
2018-09-08T19:47:25.145Z,16.17
2018-09-08T19:49:53.922Z,16.09
2018-09-08T19:52:28.115Z,16.01
2018-09-08T19:54:56.843Z,15.95
2018-09-08T19:57:30.782Z,15.90
2018-09-08T20:00:02.175Z,15.85
2018-09-08T20:02:30.981Z,15.78
2018-09-08T20:04:59.763Z,15.73
2018-09-08T20:07:28.620Z,15.67
2018-09-08T20:09:57.538Z,15.64
2018-09-08T20:12:27.549Z,15.47
2018-09-08T20:14:56.323Z,15.40
2018-09-08T20:17:25.084Z,15.33
2018-09-08T20:19:53.978Z,15.36
2018-09-08T20:22:22.741Z,15.31
2018-09-08T20:24:51.504Z,15.25
2018-09-08T20:27:21.234Z,15.21
2018-09-08T20:29:50.068Z,15.14
2018-09-08T20:32:20.103Z,15.13
2018-09-08T20:34:50.527Z,15.11
2018-09-08T20:37:20.429Z,15.11
2018-09-08T20:39:52.184Z,15.08
2018-09-08T20:42:22.269Z,15.04
2018-09-08T20:44:52.930Z,15.02
2018-09-08T20:47:23.288Z,14.97
2018-09-08T20:49:53.838Z,14.89
2018-09-08T20:52:24.275Z,14.81
2018-09-08T20:55:00.201Z,14.74
2018-09-08T20:57:31.037Z,14.72
2018-09-08T21:00:01.500Z,14.70
2018-09-08T21:02:30.860Z,14.73
2018-09-08T21:05:01.164Z,14.63
2018-09-08T21:07:31.324Z,14.63
2018-09-08T21:10:00.191Z,14.59
2018-09-08T21:12:29.004Z,14.51
2018-09-08T21:14:57.797Z,14.43
2018-09-08T21:17:26.721Z,14.39
2018-09-08T21:19:55.502Z,14.37
2018-09-08T21:22:24.266Z,14.36
2018-09-08T21:24:53.052Z,14.35
2018-09-08T21:27:21.867Z,14.24
2018-09-08T21:29:50.636Z,14.24
2018-09-08T21:32:19.498Z,14.24
2018-09-08T21:34:48.451Z,14.18
2018-09-08T21:37:17.233Z,14.07
2018-09-08T21:39:46.108Z,14.21
2018-09-08T21:42:14.864Z,14.19
2018-09-08T21:44:43.652Z,14.12
2018-09-08T21:47:12.432Z,14.04
2018-09-08T21:49:41.215Z,13.98
2018-09-08T21:52:10.814Z,13.93
2018-09-08T21:54:41.474Z,13.94
2018-09-08T21:57:10.319Z,13.86
2018-09-08T21:59:41.205Z,13.83
2018-09-08T22:02:11.376Z,13.81
2018-09-08T22:04:41.738Z,13.80
2018-09-08T22:07:10.716Z,13.70
2018-09-08T22:09:40.706Z,13.69
2018-09-08T22:12:11.704Z,13.69
2018-09-08T22:14:41.479Z,13.56
2018-09-08T22:17:10.324Z,13.54
2018-09-08T22:19:41.226Z,13.53
2018-09-08T22:22:10.141Z,13.55
2018-09-08T22:24:40.417Z,13.48
2018-09-08T22:27:10.612Z,13.46
2018-09-08T22:29:40.981Z,13.43
2018-09-08T22:32:10.192Z,13.46
2018-09-08T22:34:39.091Z,13.26
2018-09-08T22:37:08.221Z,13.33
2018-09-08T22:39:37.535Z,13.30
2018-09-08T22:42:06.308Z,13.33
2018-09-08T22:44:37.213Z,13.32
2018-09-08T22:47:08.121Z,13.31
2018-09-08T22:49:37.570Z,13.26
2018-09-08T22:52:07.731Z,13.31
2018-09-08T22:54:37.753Z,13.29
2018-09-08T22:57:06.946Z,13.30
2018-09-08T22:59:35.707Z,13.23
2018-09-08T23:02:04.460Z,13.22
2018-09-08T23:04:33.492Z,13.20
2018-09-08T23:07:04.436Z,13.12
2018-09-08T23:09:33.185Z,13.08
2018-09-08T23:12:01.957Z,13.03
2018-09-08T23:14:30.821Z,13.03
2018-09-08T23:17:00.002Z,13.03
2018-09-08T23:19:28.895Z,13.00
2018-09-08T23:21:59.244Z,12.96
2018-09-08T23:24:30.219Z,12.90
2018-09-08T23:27:00.742Z,13.01
2018-09-08T23:29:30.237Z,12.93
2018-09-08T23:31:59.015Z,12.84
2018-09-08T23:34:27.820Z,12.80
2018-09-08T23:36:57.728Z,12.75
2018-09-08T23:39:26.550Z,12.78
2018-09-08T23:41:55.387Z,12.73
2018-09-08T23:44:26.344Z,12.69
2018-09-08T23:46:56.189Z,12.70
2018-09-08T23:49:25.725Z,12.73
2018-09-08T23:51:55.325Z,12.61
2018-09-08T23:54:24.151Z,12.59
2018-09-08T23:56:52.987Z,12.56
2018-09-08T23:59:21.849Z,12.56
